createdAt,value
2019-04-06T00:01:30.748Z,14.47
2019-04-06T00:07:36.577Z,13.83
2019-04-06T00:22:41.129Z,14.33
2019-04-06T00:34:30.305Z,15.63
2019-04-06T00:40:20.543Z,15.57
2019-04-06T00:43:11.767Z,14.47
2019-04-06T00:49:05.355Z,16.30
2019-04-06T00:55:18.383Z,16.87
2019-04-06T01:04:22.692Z,14.70
2019-04-06T01:06:56.509Z,15.60
2019-04-06T01:09:27.291Z,15.57
2019-04-06T01:12:17.284Z,17.13
2019-04-06T01:14:49.082Z,15.40
2019-04-06T01:17:43.118Z,16.00
2019-04-06T01:20:29.031Z,15.37
2019-04-06T01:23:13.244Z,16.03
2019-04-06T01:26:06.386Z,16.27
2019-04-06T01:31:36.648Z,15.50
2019-04-06T01:34:19.301Z,15.97
2019-04-06T01:39:58.316Z,15.20
2019-04-06T01:42:49.757Z,15.37
2019-04-06T01:45:21.695Z,16.10
2019-04-06T01:48:11.275Z,16.50
2019-04-06T01:51:00.872Z,16.00
2019-04-06T01:53:51.845Z,16.27
2019-04-06T01:56:41.475Z,15.93
2019-04-06T01:59:31.311Z,17.43
2019-04-06T02:02:39.618Z,16.53
2019-04-06T02:05:29.566Z,17.43
2019-04-06T02:08:19.392Z,17.20
2019-04-06T02:11:08.943Z,16.37
2019-04-06T02:14:01.403Z,16.07
2019-04-06T02:16:32.159Z,17.57
2019-04-06T02:19:03.028Z,17.33
2019-04-06T02:21:52.548Z,16.63
2019-04-06T02:24:23.377Z,17.23
2019-04-06T02:27:13.077Z,18.13
2019-04-06T02:29:44.259Z,18.90
2019-04-06T02:32:44.811Z,18.20
2019-04-06T02:35:53.202Z,18.27
2019-04-06T02:39:02.463Z,18.53
2019-04-06T02:42:08.014Z,17.47
2019-04-06T02:44:38.641Z,16.90
2019-04-06T02:47:28.735Z,18.43
2019-04-06T02:53:12.568Z,17.67
2019-04-06T02:56:02.301Z,18.97
2019-04-06T02:58:33.630Z,19.27
2019-04-06T03:01:25.240Z,19.20
2019-04-06T03:04:15.477Z,17.97
2019-04-06T03:06:57.080Z,17.87
2019-04-06T03:09:28.299Z,18.40
2019-04-06T03:12:01.433Z,18.03
2019-04-06T03:14:32.366Z,18.83
2019-04-06T03:17:22.225Z,19.47
2019-04-06T03:20:11.992Z,18.70
2019-04-06T03:22:42.794Z,18.33
2019-04-06T03:25:23.476Z,18.53
2019-04-06T03:28:13.093Z,19.23
2019-04-06T03:31:02.975Z,17.07
2019-04-06T03:33:52.795Z,18.53
2019-04-06T03:36:43.009Z,18.73
2019-04-06T03:39:33.644Z,18.40
2019-04-06T03:42:23.597Z,17.77
2019-04-06T03:44:54.410Z,18.63
2019-04-06T03:47:38.422Z,18.93
2019-04-06T03:50:27.963Z,19.33
2019-04-06T03:53:17.543Z,21.20
2019-04-06T03:55:48.150Z,20.03
2019-04-06T03:58:19.493Z,19.93
2019-04-06T04:01:09.571Z,19.80
2019-04-06T04:03:59.352Z,20.17
2019-04-06T04:09:44.956Z,20.63
2019-04-06T04:12:15.600Z,20.17
2019-04-06T04:15:05.874Z,19.43
2019-04-06T04:21:46.099Z,19.53
2019-04-06T04:24:35.688Z,21.20
2019-04-06T04:27:06.480Z,21.73
2019-04-06T04:29:37.631Z,20.00
2019-04-06T04:32:08.398Z,19.90
2019-04-06T04:34:39.166Z,20.30
2019-04-06T04:37:10.044Z,19.43
2019-04-06T04:39:59.707Z,20.30
2019-04-06T04:42:30.424Z,18.30
2019-04-06T04:45:01.499Z,20.37
2019-04-06T04:47:51.274Z,19.13
2019-04-06T04:50:24.483Z,19.27
2019-04-06T04:52:55.375Z,20.70
2019-04-06T04:55:25.992Z,18.77
2019-04-06T04:58:15.908Z,18.57
2019-04-06T05:04:27.466Z,19.50
2019-04-06T05:06:58.031Z,20.33
2019-04-06T05:09:28.627Z,20.60
2019-04-06T05:12:18.657Z,19.17
2019-04-06T05:15:28.979Z,20.30
2019-04-06T05:17:59.905Z,20.33
2019-04-06T05:23:45.604Z,19.67
2019-04-06T05:26:16.246Z,20.23
2019-04-06T05:28:46.868Z,18.37
2019-04-06T05:31:17.741Z,20.40
2019-04-06T05:34:08.479Z,19.23
2019-04-06T05:36:58.298Z,19.83
2019-04-06T05:39:29.081Z,19.13
2019-04-06T05:42:19.051Z,20.13
2019-04-06T05:44:50.126Z,18.00
2019-04-06T05:47:40.793Z,19.43
2019-04-06T05:50:12.019Z,18.57
2019-04-06T05:52:42.643Z,18.73
2019-04-06T05:55:13.936Z,18.93
2019-04-06T05:57:44.727Z,19.50
2019-04-06T06:00:16.713Z,19.70
2019-04-06T06:02:47.290Z,19.77
2019-04-06T06:05:27.240Z,21.13
2019-04-06T06:07:58.028Z,20.70
2019-04-06T06:10:28.998Z,20.33
2019-04-06T06:13:18.608Z,22.27
2019-04-06T06:15:52.145Z,22.87
2019-04-06T06:21:55.665Z,22.03
2019-04-06T06:24:45.649Z,21.03
2019-04-06T06:27:16.861Z,23.90
2019-04-06T06:29:47.437Z,23.10
2019-04-06T06:32:31.024Z,23.27
2019-04-06T06:35:05.741Z,24.67
2019-04-06T06:37:36.463Z,25.30
2019-04-06T06:40:08.841Z,24.40
2019-04-06T06:42:39.642Z,22.80
2019-04-06T06:45:10.647Z,23.17
2019-04-06T06:47:41.448Z,23.27
2019-04-06T06:50:48.555Z,22.67
2019-04-06T06:53:18.502Z,23.37
2019-04-06T06:59:05.902Z,25.60
2019-04-06T07:01:57.965Z,24.23
2019-04-06T07:04:47.791Z,23.33
2019-04-06T07:07:18.518Z,24.60
2019-04-06T07:10:09.054Z,22.87
2019-04-06T07:12:44.655Z,22.37
2019-04-06T07:15:16.240Z,20.57
2019-04-06T07:17:46.985Z,20.13
2019-04-06T07:20:17.960Z,21.23
2019-04-06T07:26:06.275Z,21.57
2019-04-06T07:28:39.002Z,21.47
2019-04-06T07:34:23.527Z,21.17
2019-04-06T07:36:54.836Z,22.77
2019-04-06T07:43:07.526Z,20.33
2019-04-06T07:46:01.438Z,21.93
2019-04-06T07:48:41.105Z,19.67
2019-04-06T07:51:31.067Z,18.13
2019-04-06T07:54:20.816Z,21.57
2019-04-06T07:57:11.052Z,20.80
2019-04-06T07:59:42.025Z,18.87
2019-04-06T08:02:36.232Z,20.27
2019-04-06T08:05:28.420Z,19.23
2019-04-06T08:07:58.986Z,19.03
2019-04-06T08:10:30.401Z,26.57
2019-04-06T08:13:01.057Z,20.70
2019-04-06T08:15:50.887Z,20.70
2019-04-06T08:18:21.582Z,19.73
2019-04-06T08:21:12.576Z,20.33
2019-04-06T08:23:43.165Z,19.30
2019-04-06T08:26:38.011Z,20.73
2019-04-06T08:29:08.685Z,20.23
2019-04-06T08:31:40.223Z,19.93
2019-04-06T08:34:31.376Z,20.53
2019-04-06T08:37:03.331Z,20.60
2019-04-06T08:40:01.079Z,19.03
2019-04-06T08:42:32.255Z,19.93
2019-04-06T08:45:23.238Z,20.23
2019-04-06T08:48:16.921Z,20.30
2019-04-06T08:50:47.836Z,19.47
2019-04-06T08:53:25.293Z,18.47
2019-04-06T08:55:57.390Z,19.53
2019-04-06T08:58:36.377Z,20.50
2019-04-06T09:01:27.526Z,22.07
2019-04-06T09:04:17.856Z,21.17
2019-04-06T09:06:48.643Z,20.93
2019-04-06T09:09:39.228Z,21.87
2019-04-06T09:12:29.336Z,20.97
2019-04-06T09:15:00.195Z,20.77
2019-04-06T09:17:50.737Z,21.47
2019-04-06T09:20:21.768Z,21.43
2019-04-06T09:22:52.815Z,21.93
2019-04-06T09:25:23.798Z,21.20
2019-04-06T09:28:14.001Z,19.90
2019-04-06T09:30:44.728Z,21.07
2019-04-06T09:33:35.365Z,21.07
2019-04-06T09:36:07.797Z,19.07
2019-04-06T09:38:41.025Z,20.53
2019-04-06T09:41:26.123Z,21.03
2019-04-06T09:43:59.210Z,22.67
2019-04-06T09:47:01.963Z,21.60
2019-04-06T09:50:12.225Z,21.47
2019-04-06T09:53:02.075Z,21.67
2019-04-06T09:55:39.442Z,22.37
2019-04-06T09:58:29.778Z,20.87
2019-04-06T10:01:51.947Z,21.57
2019-04-06T10:04:44.432Z,21.17
2019-04-06T10:07:34.427Z,22.40
2019-04-06T10:10:46.332Z,21.77
2019-04-06T10:13:35.752Z,22.30
2019-04-06T10:16:45.194Z,21.37
2019-04-06T10:19:55.175Z,21.07
2019-04-06T10:22:45.453Z,21.23
2019-04-06T10:25:39.034Z,20.50
2019-04-06T10:28:26.999Z,22.20
2019-04-06T10:31:16.501Z,20.00
2019-04-06T10:34:26.161Z,21.03
2019-04-06T10:37:15.944Z,20.50
2019-04-06T10:43:08.125Z,21.17
2019-04-06T10:45:57.588Z,21.43
2019-04-06T10:48:47.796Z,21.10
2019-04-06T10:51:56.659Z,21.63
2019-04-06T10:55:09.577Z,20.63
2019-04-06T10:58:17.804Z,21.47
2019-04-06T11:04:43.368Z,21.63
2019-04-06T11:07:50.761Z,20.63
2019-04-06T11:10:40.967Z,19.90
2019-04-06T11:16:31.383Z,19.90
2019-04-06T11:19:42.474Z,18.87
2019-04-06T11:22:51.423Z,18.87
2019-04-06T11:25:35.546Z,19.80
2019-04-06T11:28:20.689Z,20.23
2019-04-06T11:31:16.489Z,19.37
2019-04-06T11:34:44.678Z,18.40
2019-04-06T11:37:55.504Z,19.40
2019-04-06T11:40:56.401Z,19.87
2019-04-06T11:43:48.194Z,18.10
2019-04-06T11:46:38.014Z,19.43
2019-04-06T11:49:20.793Z,17.47
2019-04-06T11:52:35.132Z,16.73
2019-04-06T11:55:25.037Z,16.53
2019-04-06T12:01:26.297Z,15.73
2019-04-06T12:04:15.852Z,14.97
2019-04-06T12:07:00.951Z,15.20
2019-04-06T12:10:11.575Z,14.97
2019-04-06T12:12:55.559Z,14.97
2019-04-06T12:15:48.063Z,14.37
2019-04-06T12:18:37.615Z,12.87
2019-04-06T12:21:59.978Z,10.93
2019-04-06T12:25:02.430Z,12.07
2019-04-06T12:28:14.156Z,13.80
2019-04-06T12:31:22.775Z,14.03
2019-04-06T12:34:13.410Z,14.17
2019-04-06T12:37:22.024Z,13.37
2019-04-06T12:40:12.584Z,13.33
2019-04-06T12:43:08.236Z,14.27
2019-04-06T12:46:04.698Z,13.00
2019-04-06T12:48:47.866Z,13.87
2019-04-06T12:51:33.397Z,13.30
2019-04-06T12:54:23.350Z,13.37
2019-04-06T12:57:31.889Z,13.13
2019-04-06T13:00:50.900Z,12.53
2019-04-06T13:03:32.706Z,12.90
2019-04-06T13:06:26.684Z,12.10
2019-04-06T13:09:35.143Z,12.77
2019-04-06T13:12:26.751Z,11.13
2019-04-06T13:15:32.888Z,11.97
2019-04-06T13:18:30.299Z,11.97
2019-04-06T13:24:47.385Z,11.13
2019-04-06T13:27:55.827Z,11.57
2019-04-06T13:31:07.592Z,11.47
2019-04-06T13:34:08.405Z,11.30
2019-04-06T13:37:09.045Z,11.50
2019-04-06T13:39:59.787Z,11.13
2019-04-06T13:43:10.682Z,10.70
2019-04-06T13:46:03.130Z,10.93
2019-04-06T13:48:52.544Z,11.43
2019-04-06T13:52:01.932Z,10.10
2019-04-06T13:55:10.595Z,10.10
2019-04-06T13:58:20.281Z,11.13
2019-04-06T14:01:30.477Z,10.27
2019-04-06T14:04:13.793Z,10.90
2019-04-06T14:07:03.316Z,10.43
2019-04-06T14:10:13.013Z,10.30
2019-04-06T14:13:03.643Z,8.50
2019-04-06T14:15:53.123Z,9.43
2019-04-06T14:19:04.229Z,9.77
2019-04-06T14:28:54.033Z,10.13
2019-04-06T14:31:43.651Z,9.77
2019-04-06T14:41:02.802Z,9.13
2019-04-06T14:47:34.163Z,9.20
2019-04-06T14:50:26.297Z,9.13
2019-04-06T14:53:21.586Z,8.57
2019-04-06T15:03:02.658Z,9.40
2019-04-06T15:05:53.295Z,9.50
2019-04-06T15:08:33.753Z,9.70
2019-04-06T15:18:06.119Z,8.67
2019-04-06T15:23:49.078Z,8.83
2019-04-06T15:27:02.805Z,8.70
2019-04-06T15:33:43.058Z,9.10
2019-04-06T15:36:52.072Z,9.27
2019-04-06T15:40:17.022Z,8.90
2019-04-06T15:57:32.109Z,8.43
2019-04-06T16:00:14.167Z,9.23
2019-04-06T16:02:57.039Z,8.10
2019-04-06T16:05:33.166Z,8.20
2019-04-06T16:08:29.057Z,8.53
2019-04-06T16:11:14.500Z,8.70
2019-04-06T16:20:18.561Z,8.80
2019-04-06T16:26:34.154Z,8.13
2019-04-06T16:32:33.259Z,8.03
2019-04-06T16:38:06.882Z,7.93
2019-04-06T16:44:13.688Z,8.00
2019-04-06T16:49:54.763Z,8.30
2019-04-06T16:53:06.644Z,8.33
2019-04-06T16:56:10.743Z,8.13
2019-04-06T17:05:10.441Z,8.50
2019-04-06T17:08:21.913Z,7.70
2019-04-06T17:18:15.390Z,7.77
2019-04-06T17:24:33.765Z,8.37
2019-04-06T17:27:23.812Z,8.53
2019-04-06T17:30:16.506Z,8.23
2019-04-06T17:33:23.568Z,7.33
2019-04-06T17:36:18.711Z,7.00
2019-04-06T17:39:13.202Z,7.07
2019-04-06T17:42:11.472Z,8.37
2019-04-06T17:45:19.690Z,8.53
2019-04-06T17:48:22.898Z,9.60
2019-04-06T17:54:33.926Z,7.27
2019-04-06T17:57:49.125Z,8.53
2019-04-06T18:04:18.527Z,8.20
2019-04-06T18:07:11.825Z,7.40
2019-04-06T18:10:06.205Z,8.30
2019-04-06T18:13:01.953Z,9.13
2019-04-06T18:23:23.517Z,12.87
2019-04-06T19:16:12.813Z,11.07
2019-04-06T19:19:40.800Z,10.20
2019-04-06T19:22:36.794Z,11.53
2019-04-06T19:32:11.522Z,11.17
2019-04-06T19:35:06.654Z,11.73
2019-04-06T19:37:59.683Z,11.47
2019-04-06T19:40:39.681Z,11.40
2019-04-06T19:55:50.913Z,18.33
2019-04-06T20:01:26.168Z,13.00
2019-04-06T20:04:12.315Z,12.70
2019-04-06T20:11:17.743Z,12.13
2019-04-06T20:21:06.860Z,13.83
2019-04-06T20:24:33.024Z,12.27
2019-04-06T20:27:30.595Z,12.60
2019-04-06T20:56:09.695Z,14.77
2019-04-06T21:02:16.159Z,15.77
2019-04-06T21:05:00.354Z,15.97
2019-04-06T21:07:58.663Z,14.13
2019-04-06T21:14:42.833Z,15.67
2019-04-06T21:21:38.704Z,14.10
2019-04-06T21:24:15.712Z,16.30
2019-04-06T21:26:50.992Z,15.53
2019-04-06T21:29:29.666Z,19.63
2019-04-06T21:32:01.790Z,15.93
2019-04-06T21:34:34.967Z,17.00
2019-04-06T21:37:09.784Z,16.20
2019-04-06T21:39:41.707Z,16.23
2019-04-06T21:42:13.049Z,16.80
2019-04-06T21:44:44.931Z,18.23
2019-04-06T21:47:19.413Z,15.60
2019-04-06T21:49:52.285Z,15.87
2019-04-06T21:52:26.252Z,15.73
2019-04-06T21:54:57.856Z,15.47
2019-04-06T21:57:30.992Z,16.63
2019-04-06T22:00:05.743Z,16.03
2019-04-06T22:02:36.859Z,14.97
2019-04-06T22:05:08.338Z,15.33
2019-04-06T22:07:49.606Z,15.70
2019-04-06T22:10:17.262Z,16.70
2019-04-06T22:12:49.032Z,16.17
2019-04-06T22:15:25.672Z,15.13
2019-04-06T22:17:56.739Z,17.47
2019-04-06T22:20:28.943Z,16.90
2019-04-06T22:23:07.021Z,16.00
2019-04-06T22:25:49.354Z,16.63
2019-04-06T22:28:25.617Z,18.20
2019-04-06T22:31:50.169Z,25.60
2019-04-06T22:34:34.044Z,15.70
2019-04-06T22:36:55.940Z,16.77
2019-04-06T22:39:28.365Z,16.60
2019-04-06T22:49:11.249Z,15.97
2019-04-06T22:51:43.419Z,16.90
2019-04-06T22:54:16.307Z,17.33
2019-04-06T22:56:48.364Z,32.00
2019-04-06T22:59:21.440Z,18.33
2019-04-06T23:01:53.355Z,19.17
2019-04-06T23:04:29.792Z,19.53
2019-04-06T23:07:07.612Z,17.77
2019-04-06T23:09:38.516Z,19.33
2019-04-06T23:12:10.208Z,19.80
2019-04-06T23:14:42.080Z,18.83
2019-04-06T23:17:13.596Z,17.77
2019-04-06T23:19:45.337Z,18.40
2019-04-06T23:22:23.536Z,18.53
2019-04-06T23:24:57.017Z,18.77
2019-04-06T23:27:28.209Z,17.97
2019-04-06T23:30:01.851Z,16.90
2019-04-06T23:32:33.099Z,17.90
2019-04-06T23:35:07.057Z,17.97
2019-04-06T23:41:13.649Z,17.30
2019-04-06T23:43:46.973Z,18.13
2019-04-06T23:46:19.017Z,18.07
2019-04-06T23:48:55.214Z,18.47
2019-04-06T23:51:28.490Z,17.97
2019-04-06T23:54:07.069Z,18.30
2019-04-06T23:56:38.589Z,20.23
2019-04-06T23:59:12.990Z,19.73
